Time;durP1;ratioP1;P1;durP2;ratioP2;P2;SDS_P1;SDS_P2;PMS_P1;PMS_P2;Temp;Humidity;BMP_temperature;BMP_pressure;BME280_temperature;BME280_humidity;BME280_pressure;Samples;Min_cycle;Max_cycle;Signal;HPM_P1;HPM_P2
2022/01/12 00:02:18;;;;;;;18.63;12.93;;;;;;;0.68;90.63;103124.94;5077845;28;20232;-71
2022/01/12 00:04:46;;;;;;;24.10;14.23;;;;;;;0.72;90.49;103127.69;5096460;28;20245;-72
2022/01/12 00:07:13;;;;;;;28.07;15.00;;;;;;;0.81;90.45;103125.47;5095886;28;20264;-71
2022/01/12 00:09:39;;;;;;;23.47;14.17;;;;;;;0.79;90.37;103115.91;5095608;28;20190;-71
2022/01/12 00:12:07;;;;;;;19.53;14.27;;;;;;;0.86;90.37;103120.50;5077949;28;20195;-71
2022/01/12 00:14:34;;;;;;;21.23;15.13;;;;;;;0.92;90.08;103123.25;5095563;28;20178;-71
2022/01/12 00:17:00;;;;;;;35.33;14.97;;;;;;;1.01;89.93;103133.94;5096502;28;20201;-71
2022/01/12 00:19:28;;;;;;;25.83;15.73;;;;;;;1.10;89.53;103130.81;5077769;28;20192;-71
2022/01/12 00:21:56;;;;;;;28.80;14.47;;;;;;;1.13;89.28;103133.50;5095271;28;20292;-71
2022/01/12 00:24:27;;;;;;;26.93;14.27;;;;;;;1.28;88.47;103136.63;5095333;28;20224;-71
2022/01/12 00:35:08;;;;;;;7.43;6.83;;;;;;;1.54;87.04;103142.72;5113518;28;20173;-72
2022/01/12 00:37:35;;;;;;;6.53;6.07;;;;;;;1.61;86.05;103147.28;5060320;28;20278;-72
2022/01/12 00:40:01;;;;;;;9.30;7.90;;;;;;;1.64;85.93;103157.72;5095558;28;20190;-72
2022/01/12 00:42:28;;;;;;;9.30;7.57;;;;;;;1.62;85.42;103171.38;5094877;28;20262;-72
2022/01/12 00:44:55;;;;;;;9.57;8.70;;;;;;;1.67;85.31;103164.69;5077002;28;20186;-73
2022/01/12 00:47:22;;;;;;;9.33;8.33;;;;;;;1.59;85.40;103159.25;5077048;28;20267;-72
2022/01/12 00:49:49;;;;;;;8.83;7.93;;;;;;;1.45;85.84;103141.53;5094824;28;20193;-71
2022/01/12 00:52:15;;;;;;;8.60;7.80;;;;;;;1.36;86.41;103137.81;5094926;28;20178;-71
2022/01/12 00:54:46;;;;;;;7.80;6.30;;;;;;;1.33;86.79;103147.13;5099277;28;20264;-72
2022/01/12 00:57:12;;;;;;;7.27;6.80;;;;;;;1.33;87.08;103150.59;5076452;28;20217;-71
2022/01/12 00:59:39;;;;;;;6.80;6.17;;;;;;;1.42;86.93;103162.06;5076445;28;20609;-71
2022/01/12 01:02:05;;;;;;;8.27;6.27;;;;;;;1.61;86.47;103161.88;5076937;28;20202;-71
2022/01/12 01:04:33;;;;;;;7.73;7.03;;;;;;;1.65;86.10;103174.97;5078966;28;20243;-72
2022/01/12 01:06:59;;;;;;;7.60;6.90;;;;;;;1.67;86.01;103185.34;5096705;28;20213;-71
2022/01/12 01:09:26;;;;;;;8.67;8.07;;;;;;;1.66;85.71;103196.50;5096518;28;20213;-71
2022/01/12 01:11:55;;;;;;;8.97;8.10;;;;;;;1.63;85.87;103201.53;5096591;28;20178;-71
2022/01/12 01:14:34;;;;;;;8.63;7.97;;;;;;;1.56;86.03;103199.56;5113750;28;20189;-71
2022/01/12 01:25:32;;;;;;;8.80;8.07;;;;;;;1.49;86.67;103205.34;5084181;28;20192;-71
2022/01/12 01:28:00;;;;;;;11.83;8.07;;;;;;;1.51;86.54;103208.88;5096228;28;20250;-71
2022/01/12 01:30:28;;;;;;;8.87;8.27;;;;;;;1.54;86.48;103208.97;5079607;28;20273;-72
2022/01/12 01:32:57;;;;;;;8.00;7.40;;;;;;;1.53;86.64;103212.38;5076465;28;20690;-72
2022/01/12 01:35:29;;;;;;;8.93;8.03;;;;;;;1.71;85.66;103218.19;5084920;28;20185;-72
2022/01/12 01:37:58;;;;;;;9.00;7.80;;;;;;;1.66;85.82;103209.41;5096101;28;20185;-72
2022/01/12 01:40:26;;;;;;;7.80;7.17;;;;;;;1.75;85.63;103204.56;5096066;28;20268;-71
2022/01/12 01:43:11;;;;;;;6.93;6.37;;;;;;;1.92;84.66;103218.94;5096173;28;20686;-71
2022/01/12 01:53:57;;;;;;;7.23;6.83;;;;;;;2.02;82.97;103239.94;5095823;28;20195;-71
2022/01/12 01:56:24;;;;;;;9.13;8.53;;;;;;;2.08;82.70;103241.03;5078237;28;20209;-71
2022/01/12 01:58:52;;;;;;;7.97;7.20;;;;;;;2.06;82.90;103237.50;5075228;28;20198;-71
2022/01/12 02:01:20;;;;;;;9.17;7.43;;;;;;;2.00;83.09;103244.16;5075386;28;20205;-71
2022/01/12 02:03:56;;;;;;;7.90;7.13;;;;;;;2.02;83.22;103229.59;5076093;28;20209;-71
2022/01/12 02:06:23;;;;;;;7.43;6.83;;;;;;;2.13;82.77;103230.84;5092231;28;20297;-71
2022/01/12 02:08:50;;;;;;;9.03;8.00;;;;;;;2.22;82.15;103220.84;5095925;28;20189;-71
2022/01/12 02:11:52;;;;;;;8.40;6.67;;;;;;;2.16;82.63;103202.53;5096674;28;20246;-71
2022/01/12 02:14:23;;;;;;;7.60;6.83;;;;;;;2.20;82.54;103197.50;5096079;28;20182;-72
2022/01/12 02:17:01;;;;;;;10.97;6.80;;;;;;;2.25;82.28;103178.69;5092041;28;20214;-71
2022/01/12 02:35:55;;;;;;;8.17;7.40;;;;;;;1.94;83.46;103190.59;5114053;28;20239;-72
2022/01/12 02:41:07;;;;;;;7.67;7.07;;;;;;;1.96;83.16;103188.06;5113787;28;20169;-71
2022/01/12 02:51:35;;;;;;;8.93;6.57;;;;;;;2.05;82.76;103214.19;5078196;28;20241;-72
2022/01/12 02:54:03;;;;;;;6.20;5.90;;;;;;;2.05;82.85;103211.63;5113784;28;20592;-72
2022/01/12 02:56:33;;;;;;;5.87;5.77;;;;;;;1.99;83.13;103198.47;5084010;28;20222;-72
2022/01/12 02:59:01;;;;;;;6.63;6.23;;;;;;;1.92;83.35;103197.38;5074989;28;20190;-71
2022/01/12 03:04:03;;;;;;;6.23;5.87;;;;;;;1.89;83.53;103198.19;5075636;28;20550;-71
2022/01/12 03:06:34;;;;;;;6.80;6.53;;;;;;;1.92;83.51;103198.25;5103387;28;20213;-72
2022/01/12 03:09:02;;;;;;;7.03;6.60;;;;;;;1.86;83.69;103190.34;5095144;28;20189;-71
2022/01/12 03:11:30;;;;;;;6.97;6.63;;;;;;;1.92;83.49;103195.69;5098498;28;20212;-71
2022/01/12 03:14:00;;;;;;;5.60;5.40;;;;;;;1.97;83.31;103200.16;5082809;28;20242;-71
2022/01/12 03:16:28;;;;;;;6.67;6.27;;;;;;;1.91;83.59;103209.44;5072023;28;20250;-72
2022/01/12 03:19:00;;;;;;;6.80;6.27;;;;;;;1.93;83.58;103217.25;5078764;28;20246;-71
2022/01/12 03:21:31;;;;;;;6.87;6.43;;;;;;;1.97;83.55;103226.84;5078211;28;20214;-71
2022/01/12 03:23:59;;;;;;;7.23;6.77;;;;;;;2.00;83.58;103226.06;5061781;28;20190;-71
2022/01/12 03:26:28;;;;;;;8.47;5.87;;;;;;;1.97;83.80;103229.44;5087354;28;20214;-72
2022/01/12 03:28:56;;;;;;;7.03;6.33;;;;;;;2.11;83.50;103235.97;5099382;28;20189;-71
2022/01/12 03:31:28;;;;;;;6.80;6.40;;;;;;;2.15;83.26;103237.84;5099292;28;20186;-71
2022/01/12 03:34:04;;;;;;;6.53;6.23;;;;;;;2.06;83.40;103237.50;5098485;28;20230;-71
2022/01/12 03:39:11;;;;;;;7.33;6.83;;;;;;;2.10;83.40;103234.22;5117462;28;20185;-71
2022/01/12 03:41:41;;;;;;;7.93;7.53;;;;;;;2.16;83.07;103243.88;5096805;28;20221;-71
2022/01/12 03:44:11;;;;;;;7.30;6.80;;;;;;;2.27;82.29;103242.53;5079003;28;20198;-72
2022/01/12 03:46:44;;;;;;;7.17;6.77;;;;;;;2.27;81.97;103242.53;5077946;28;20209;-72
2022/01/12 03:49:14;;;;;;;6.57;6.10;;;;;;;2.32;82.19;103233.22;5078538;28;20186;-72
2022/01/12 03:51:41;;;;;;;6.60;6.30;;;;;;;2.29;82.45;103225.38;5078699;28;20626;-72
2022/01/12 03:54:09;;;;;;;6.30;6.10;;;;;;;2.32;82.49;103225.47;5116013;28;20547;-72
2022/01/12 03:56:36;;;;;;;7.87;7.17;;;;;;;2.32;82.50;103230.63;5097895;28;20721;-72
2022/01/12 03:59:04;;;;;;;7.57;6.97;;;;;;;2.32;82.63;103233.22;5098217;28;20189;-72
2022/01/12 04:01:30;;;;;;;8.10;7.30;;;;;;;2.44;82.35;103230.16;5097812;28;20727;-72
2022/01/12 04:04:05;;;;;;;9.73;7.23;;;;;;;2.53;82.08;103229.59;5077830;28;20751;-72
2022/01/12 04:09:36;;;;;;;9.13;8.30;;;;;;;2.52;81.37;103227.84;5077487;28;20185;-71
2022/01/12 04:12:04;;;;;;;8.67;7.97;;;;;;;2.60;81.05;103229.84;5080985;28;20178;-72
2022/01/12 04:14:31;;;;;;;8.57;7.80;;;;;;;2.57;80.90;103240.09;5098775;28;20197;-71
2022/01/12 04:16:58;;;;;;;8.37;7.77;;;;;;;2.55;81.03;103243.44;5097600;28;20650;-72
2022/01/12 04:19:27;;;;;;;9.20;7.20;;;;;;;2.43;81.84;103247.41;5097590;28;20186;-72
2022/01/12 04:21:53;;;;;;;7.87;7.20;;;;;;;2.31;82.55;103248.69;5095243;28;20205;-72
2022/01/12 04:24:20;;;;;;;7.67;7.17;;;;;;;2.34;82.70;103243.59;5077186;28;20667;-72
2022/01/12 04:26:46;;;;;;;10.67;9.23;;;;;;;2.25;82.90;103239.00;5077103;28;20629;-71
2022/01/12 04:29:13;;;;;;;10.80;8.40;;;;;;;2.29;82.88;103230.53;5095495;28;20182;-71
2022/01/12 04:31:40;;;;;;;8.07;7.13;;;;;;;2.30;83.24;103227.13;5088436;28;20193;-72
2022/01/12 04:34:08;;;;;;;9.50;8.53;;;;;;;2.33;82.70;103227.22;5097257;28;20200;-71
2022/01/12 04:36:35;;;;;;;11.10;8.93;;;;;;;2.45;82.47;103237.97;5097209;28;20213;-71
2022/01/12 04:39:03;;;;;;;9.03;8.27;;;;;;;2.40;82.70;103234.34;5080635;28;20193;-72
2022/01/12 04:41:30;;;;;;;8.60;7.67;;;;;;;2.40;82.84;103244.69;5077809;28;20565;-71
2022/01/12 04:43:57;;;;;;;8.20;7.50;;;;;;;2.40;83.01;103234.34;5077272;28;20198;-71
2022/01/12 04:46:32;;;;;;;8.07;7.27;;;;;;;2.47;82.66;103241.47;5076702;28;20244;-72
2022/01/12 04:49:27;;;;;;;8.27;7.60;;;;;;;2.53;82.34;103248.56;5110788;28;20177;-72
2022/01/12 04:51:54;;;;;;;8.17;7.37;;;;;;;2.51;82.36;103249.34;5098119;28;20190;-71
2022/01/12 04:54:20;;;;;;;9.30;8.60;;;;;;;2.53;82.26;103250.28;5097111;28;20181;-71
2022/01/12 04:56:47;;;;;;;8.57;7.90;;;;;;;2.55;81.86;103256.38;5096703;28;20223;-72
2022/01/12 04:59:14;;;;;;;9.37;8.60;;;;;;;2.72;81.15;103258.69;5080427;28;20197;-72
2022/01/12 05:01:50;;;;;;;9.13;8.43;;;;;;;2.53;81.31;103268.38;5115197;28;20230;-71
2022/01/12 05:07:24;;;;;;;21.43;10.07;;;;;;;2.52;81.36;103272.66;5096930;28;20258;-72
2022/01/12 05:12:54;;;;;;;9.47;8.67;;;;;;;2.43;81.93;103273.25;5076266;28;20182;-71
2022/01/12 05:15:30;;;;;;;8.87;8.47;;;;;;;2.40;82.36;103267.97;5076524;28;20222;-71
2022/01/12 05:17:56;;;;;;;11.13;9.30;;;;;;;2.36;82.59;103257.47;5076505;28;20189;-72
2022/01/12 05:20:24;;;;;;;10.67;9.77;;;;;;;2.35;82.85;103260.88;5076078;28;20201;-72
2022/01/12 05:22:51;;;;;;;11.73;10.57;;;;;;;2.37;83.02;103248.91;5075881;28;20288;-72
2022/01/12 05:25:18;;;;;;;10.60;9.70;;;;;;;2.28;83.14;103243.41;5075976;28;20212;-72
2022/01/12 05:27:47;;;;;;;13.67;10.60;;;;;;;2.39;82.81;103242.94;5080527;28;20237;-72
2022/01/12 05:30:14;;;;;;;11.33;9.43;;;;;;;2.41;81.96;103253.31;5096210;28;20651;-72
2022/01/12 05:32:43;;;;;;;11.00;10.10;;;;;;;2.38;82.01;103266.16;5095884;28;20682;-72
2022/01/12 05:35:12;;;;;;;12.23;9.40;;;;;;;2.44;81.82;103269.84;5096404;28;20188;-72
2022/01/12 05:37:40;;;;;;;13.87;9.57;;;;;;;2.38;81.97;103277.38;5092705;28;20211;-72
2022/01/12 05:40:08;;;;;;;11.37;10.17;;;;;;;2.31;83.11;103267.66;5075766;28;20221;-71
2022/01/12 05:42:37;;;;;;;11.03;10.00;;;;;;;2.33;82.91;103268.56;5076207;28;20213;-71
2022/01/12 05:45:07;;;;;;;19.30;9.77;;;;;;;2.35;83.08;103254.00;5076573;28;20651;-71
2022/01/12 05:50:03;;;;;;;14.70;11.77;;;;;;;2.36;82.12;103255.78;5095870;28;20276;-71
2022/01/12 05:52:30;;;;;;;19.60;11.57;;;;;;;2.32;82.31;103258.19;5097019;28;20207;-71
2022/01/12 05:54:57;;;;;;;13.80;10.80;;;;;;;2.36;82.18;103258.34;5095801;28;20246;-71
2022/01/12 05:57:25;;;;;;;12.90;10.80;;;;;;;2.45;81.45;103252.59;5113155;28;20818;-73
2022/01/12 05:59:51;;;;;;;17.47;11.33;;;;;;;2.39;81.77;103266.19;5093719;28;20261;-72
2022/01/12 06:02:18;;;;;;;13.37;11.77;;;;;;;2.35;81.26;103271.22;5075374;28;20650;-71
2022/01/12 06:04:46;;;;;;;13.80;11.63;;;;;;;2.37;81.14;103270.44;5078758;28;20247;-72
2022/01/12 06:07:13;;;;;;;16.63;11.30;;;;;;;2.41;81.50;103266.25;5075359;28;20217;-71
2022/01/12 06:09:39;;;;;;;21.27;11.20;;;;;;;2.37;81.38;103270.44;5077045;28;20201;-72
2022/01/12 06:12:07;;;;;;;15.97;12.33;;;;;;;2.39;81.54;103271.38;5096560;28;20652;-71
2022/01/12 06:14:33;;;;;;;16.13;11.87;;;;;;;2.33;81.87;103278.03;5092208;28;20559;-71
2022/01/12 06:17:00;;;;;;;11.33;10.27;;;;;;;2.35;81.52;103287.59;5093561;28;20736;-71
2022/01/12 06:19:27;;;;;;;12.87;11.57;;;;;;;2.36;81.50;103279.03;5075189;28;20663;-71
2022/01/12 06:22:07;;;;;;;15.53;10.97;;;;;;;2.38;81.70;103285.13;5077411;28;20296;-72
2022/01/12 06:24:34;;;;;;;14.43;11.57;;;;;;;2.40;81.55;103278.31;5095202;28;20276;-72
2022/01/12 06:27:01;;;;;;;13.53;11.80;;;;;;;2.47;81.32;103277.69;5113379;28;20205;-72
2022/01/12 06:29:42;;;;;;;14.93;11.97;;;;;;;2.49;81.92;103281.19;5095423;28;20189;-71
2022/01/12 06:32:10;;;;;;;17.60;11.27;;;;;;;2.48;82.02;103278.56;5095414;28;20185;-71
2022/01/12 06:34:36;;;;;;;20.97;13.07;;;;;;;2.32;81.70;103284.91;5113540;28;20234;-71
2022/01/12 06:37:03;;;;;;;17.00;11.50;;;;;;;2.37;82.01;103285.97;5096384;28;20263;-72
2022/01/12 06:39:30;;;;;;;15.50;11.53;;;;;;;2.29;82.36;103287.41;5095564;28;20658;-71
2022/01/12 06:41:57;;;;;;;19.63;12.97;;;;;;;2.41;81.49;103286.94;5095184;28;20561;-71
2022/01/12 06:44:25;;;;;;;12.30;10.93;;;;;;;2.27;82.37;103291.63;5095643;28;20189;-71
2022/01/12 06:46:55;;;;;;;26.40;11.13;;;;;;;2.41;81.54;103285.22;5099762;28;20278;-72
2022/01/12 06:49:22;;;;;;;14.57;12.73;;;;;;;2.45;81.65;103294.84;5099475;28;20189;-71
2022/01/12 06:51:50;;;;;;;19.60;12.63;;;;;;;2.49;81.52;103298.41;5099513;28;20293;-71
2022/01/12 06:54:16;;;;;;;11.90;10.80;;;;;;;2.44;81.97;103303.44;5099419;28;20681;-71
2022/01/12 06:56:43;;;;;;;20.20;11.33;;;;;;;2.39;81.99;103304.09;5099289;28;20694;-72
2022/01/12 06:59:10;;;;;;;12.20;11.10;;;;;;;2.38;81.97;103303.22;5098997;28;20193;-71
2022/01/12 07:01:38;;;;;;;20.43;12.33;;;;;;;2.42;81.99;103310.25;5099063;28;20555;-71
2022/01/12 07:04:07;;;;;;;13.33;11.43;;;;;;;2.43;81.83;103312.03;5099261;28;20219;-71
2022/01/12 07:06:34;;;;;;;23.43;12.83;;;;;;;2.38;82.15;103304.94;5099138;28;20270;-72
2022/01/12 07:09:02;;;;;;;12.43;11.13;;;;;;;2.42;82.17;103314.53;5098890;28;20682;-72
2022/01/12 07:11:42;;;;;;;19.00;11.87;;;;;;;2.40;81.89;103332.59;5099097;28;20216;-72
2022/01/12 07:14:19;;;;;;;16.80;11.87;;;;;;;2.37;82.38;103352.31;5099100;28;20193;-72
2022/01/12 07:16:46;;;;;;;14.37;12.80;;;;;;;2.30;82.84;103353.78;5099000;28;20212;-72
2022/01/12 07:19:13;;;;;;;15.43;12.13;;;;;;;2.39;83.27;103360.97;5098876;28;20215;-71
2022/01/12 07:21:40;;;;;;;20.37;13.00;;;;;;;2.38;82.89;103362.69;5098566;28;20224;-71
2022/01/12 07:24:07;;;;;;;19.00;12.63;;;;;;;2.36;83.52;103361.75;5099209;28;20258;-71
2022/01/12 07:26:34;;;;;;;20.07;12.57;;;;;;;2.35;82.95;103370.31;5116999;28;20213;-72
2022/01/12 07:29:00;;;;;;;13.77;11.77;;;;;;;2.45;82.26;103377.59;5116855;28;20181;-71
2022/01/12 07:31:27;;;;;;;14.63;13.07;;;;;;;2.45;82.61;103382.75;5116740;28;20188;-71
2022/01/12 07:33:56;;;;;;;21.63;13.47;;;;;;;2.45;82.67;103381.88;5116772;28;20547;-71
2022/01/12 07:36:23;;;;;;;18.60;13.27;;;;;;;2.31;82.96;103394.31;5116594;28;20213;-72
2022/01/12 07:38:53;;;;;;;14.47;12.20;;;;;;;2.34;82.83;103399.59;5116814;28;20632;-71
2022/01/12 07:41:20;;;;;;;17.70;11.93;;;;;;;2.34;83.13;103407.34;5117159;28;20188;-71
2022/01/12 07:43:47;;;;;;;14.77;11.70;;;;;;;2.30;83.11;103412.38;5116384;28;20233;-71
2022/01/12 07:46:13;;;;;;;16.07;12.00;;;;;;;2.30;83.29;103417.53;5116387;28;20209;-72
2022/01/12 07:48:41;;;;;;;21.30;13.90;;;;;;;2.21;83.98;103415.47;5116680;28;20280;-71
2022/01/12 07:51:08;;;;;;;18.37;11.90;;;;;;;2.28;83.83;103414.88;5116364;28;20539;-71
2022/01/12 07:53:35;;;;;;;14.03;12.63;;;;;;;2.25;84.30;103409.59;5116358;28;20186;-71
2022/01/12 07:56:01;;;;;;;27.20;13.93;;;;;;;2.38;83.93;103410.94;5115943;28;20209;-72
2022/01/12 07:58:28;;;;;;;20.63;14.50;;;;;;;2.30;84.53;103408.06;5116274;28;20258;-72
2022/01/12 08:00:54;;;;;;;28.90;14.93;;;;;;;2.39;84.73;103410.09;5116417;28;20185;-71
2022/01/12 08:03:22;;;;;;;18.27;12.10;;;;;;;2.39;85.57;103412.69;5116051;28;20313;-71
2022/01/12 08:05:50;;;;;;;16.60;13.20;;;;;;;2.23;86.74;103406.09;5116848;28;20233;-72
2022/01/12 08:08:16;;;;;;;20.23;13.63;;;;;;;2.18;87.50;103408.50;5116084;28;20189;-71
2022/01/12 08:10:43;;;;;;;18.33;13.63;;;;;;;2.25;87.57;103406.13;5098093;28;20193;-71
2022/01/12 08:13:09;;;;;;;26.27;13.60;;;;;;;2.22;87.85;103408.63;5097809;28;20599;-71
2022/01/12 08:15:36;;;;;;;19.60;13.10;;;;;;;2.10;88.65;103407.34;5116404;28;20246;-72
2022/01/12 08:18:03;;;;;;;19.50;13.43;;;;;;;2.09;89.28;103418.50;5115902;28;20189;-71
2022/01/12 08:20:30;;;;;;;21.70;13.70;;;;;;;2.09;89.73;103421.09;5115790;28;20197;-71
2022/01/12 08:22:57;;;;;;;19.90;12.30;;;;;;;2.00;90.06;103425.00;5115772;28;20209;-71
2022/01/12 08:25:25;;;;;;;25.90;14.13;;;;;;;2.02;90.36;103425.97;5116075;28;20177;-71
2022/01/12 08:27:52;;;;;;;25.33;13.90;;;;;;;1.98;90.34;103431.84;5115842;28;20213;-71
2022/01/12 08:30:21;;;;;;;18.07;13.57;;;;;;;2.03;90.70;103423.44;5115916;28;20239;-71
2022/01/12 08:32:51;;;;;;;22.37;13.80;;;;;;;2.06;90.51;103427.81;5097314;28;20189;-72
2022/01/12 08:35:19;;;;;;;25.03;14.13;;;;;;;2.15;89.97;103438.53;5097414;28;20226;-71
2022/01/12 08:37:47;;;;;;;24.37;14.70;;;;;;;2.05;90.21;103439.00;5115389;28;20212;-71
2022/01/12 08:40:15;;;;;;;34.00;15.53;;;;;;;2.07;89.72;103432.16;5115487;28;20189;-71
2022/01/12 08:42:43;;;;;;;25.83;14.40;;;;;;;2.10;90.18;103434.88;5115564;28;20653;-71
2022/01/12 08:45:10;;;;;;;26.53;14.27;;;;;;;2.15;90.01;103433.38;5115892;28;20254;-71
2022/01/12 08:47:37;;;;;;;27.50;14.50;;;;;;;2.10;90.13;103438.34;5115207;28;20274;-71
2022/01/12 08:50:05;;;;;;;24.43;15.57;;;;;;;2.15;90.11;103446.28;5115251;28;20185;-71
2022/01/12 08:52:31;;;;;;;40.23;15.10;;;;;;;2.10;90.01;103447.81;5115153;28;20193;-71
2022/01/12 08:54:59;;;;;;;26.80;15.20;;;;;;;2.04;90.31;103465.66;5115175;28;20189;-71
2022/01/12 08:57:29;;;;;;;29.10;16.50;;;;;;;2.07;90.16;103477.00;5115314;28;20209;-71
2022/01/12 08:59:57;;;;;;;26.80;15.40;;;;;;;2.08;90.42;103483.06;5115330;28;20223;-71
2022/01/12 09:02:23;;;;;;;30.60;15.33;;;;;;;2.14;90.30;103485.84;5114945;28;20189;-71
2022/01/12 09:04:50;;;;;;;28.83;15.83;;;;;;;2.26;90.14;103477.69;5096560;28;20209;-71
2022/01/12 09:07:17;;;;;;;22.70;13.53;;;;;;;2.26;90.15;103475.09;5113998;28;20213;-71
2022/01/12 09:09:43;;;;;;;23.83;13.90;;;;;;;2.31;89.74;103482.22;5115152;28;20211;-71
2022/01/12 09:12:10;;;;;;;29.87;14.80;;;;;;;2.18;90.16;103493.78;5115099;28;20177;-71
2022/01/12 09:14:37;;;;;;;35.10;14.03;;;;;;;2.24;90.33;103500.03;5096799;28;20597;-71
2022/01/12 09:17:13;;;;;;;31.23;16.00;;;;;;;2.22;90.34;103492.22;5114898;28;20739;-71
2022/01/12 09:19:39;;;;;;;28.87;17.07;;;;;;;2.32;90.03;103499.47;5096510;28;20185;-71
2022/01/12 09:22:06;;;;;;;25.03;15.20;;;;;;;2.30;90.26;103485.63;5114682;28;20197;-71
2022/01/12 09:24:33;;;;;;;30.37;16.33;;;;;;;2.30;90.40;103484.75;5114569;28;20209;-71
2022/01/12 09:27:05;;;;;;;39.53;15.87;;;;;;;2.34;90.27;103490.06;5097333;28;20201;-71
2022/01/12 09:29:31;;;;;;;28.67;14.93;;;;;;;2.41;90.08;103484.31;5115106;28;20230;-71
2022/01/12 09:31:58;;;;;;;25.50;15.17;;;;;;;2.45;89.88;103493.06;5114414;28;20198;-71
2022/01/12 09:34:24;;;;;;;37.47;18.33;;;;;;;2.52;89.87;103494.19;5114375;28;20178;-71
2022/01/12 09:36:51;;;;;;;31.63;17.90;;;;;;;2.56;89.62;103493.44;5114531;28;20694;-72
2022/01/12 09:39:17;;;;;;;37.00;18.10;;;;;;;2.56;89.74;103494.31;5114571;28;20193;-72
2022/01/12 09:41:44;;;;;;;31.60;18.20;;;;;;;2.58;89.47;103504.75;5114837;28;20173;-71
2022/01/12 09:44:11;;;;;;;44.37;18.60;;;;;;;2.65;89.48;103501.56;5114169;28;20742;-71
2022/01/12 09:46:38;;;;;;;53.00;20.57;;;;;;;2.67;90.11;103494.72;5114330;28;20206;-72
2022/01/12 09:49:06;;;;;;;47.43;21.50;;;;;;;2.63;90.25;103492.84;5114123;28;20189;-71
2022/01/12 09:51:32;;;;;;;40.47;18.67;;;;;;;2.62;90.66;103488.50;5114332;28;20207;-71
2022/01/12 09:53:59;;;;;;;37.73;19.13;;;;;;;2.64;90.99;103497.19;5114151;28;20184;-71
2022/01/12 09:56:30;;;;;;;43.33;19.27;;;;;;;2.72;91.05;103496.66;5095748;28;20257;-72
2022/01/12 09:59:03;;;;;;;40.87;18.57;;;;;;;2.78;90.88;103502.84;5095796;28;20259;-71
2022/01/12 10:01:35;;;;;;;32.63;17.83;;;;;;;2.81;90.87;103503.00;5113972;28;20181;-71
2022/01/12 10:04:12;;;;;;;28.63;16.13;;;;;;;2.82;90.59;103495.28;5113805;28;20202;-71
2022/01/12 10:06:42;;;;;;;40.47;19.13;;;;;;;2.92;90.42;103497.34;5113938;28;20218;-71
2022/01/12 10:09:08;;;;;;;35.50;17.33;;;;;;;3.00;89.99;103495.94;5114417;28;20206;-71
2022/01/12 10:11:39;;;;;;;43.33;19.27;;;;;;;3.15;89.66;103497.28;5113834;28;20594;-71
2022/01/12 10:14:07;;;;;;;44.47;19.90;;;;;;;3.08;89.38;103490.13;5095543;28;20594;-71
2022/01/12 10:16:33;;;;;;;48.47;21.27;;;;;;;2.97;89.21;103500.09;5113972;28;20330;-71
2022/01/12 10:19:00;;;;;;;45.07;21.70;;;;;;;3.18;88.98;103508.63;5113330;28;20274;-71
2022/01/12 10:21:32;;;;;;;49.20;22.30;;;;;;;3.08;89.56;103516.03;5113377;28;20197;-71
2022/01/12 10:24:02;;;;;;;63.60;22.60;;;;;;;2.98;89.98;103519.97;5113964;28;20193;-71
2022/01/12 10:26:37;;;;;;;51.40;23.43;;;;;;;3.04;89.78;103522.78;5113906;28;20209;-71
2022/01/12 10:29:11;;;;;;;64.17;22.53;;;;;;;2.86;90.81;103517.84;5096252;28;20593;-71
2022/01/12 10:31:50;;;;;;;58.80;22.60;;;;;;;2.89;90.37;103517.94;5113877;28;20574;-71
2022/01/12 10:34:25;;;;;;;62.60;22.30;;;;;;;2.89;90.64;103525.72;5113877;28;20568;-71
2022/01/12 10:36:53;;;;;;;54.93;22.87;;;;;;;2.84;91.42;103532.41;5113991;28;20254;-71
2022/01/12 10:39:22;;;;;;;53.47;21.97;;;;;;;2.85;92.00;103521.25;5113825;28;20234;-71
2022/01/12 10:42:09;;;;;;;46.50;21.60;;;;;;;2.83;92.12;103524.59;5113552;28;20629;-71
2022/01/12 10:44:49;;;;;;;63.00;23.00;;;;;;;2.84;91.95;103529.84;5113765;28;20650;-71
2022/01/12 10:47:18;;;;;;;63.90;23.93;;;;;;;2.85;91.96;103528.13;5114117;28;20592;-71
2022/01/12 10:49:54;;;;;;;67.93;24.27;;;;;;;2.85;91.81;103523.81;5113279;28;20186;-71
2022/01/12 10:52:22;;;;;;;49.33;21.43;;;;;;;2.85;91.66;103521.25;5113903;28;20198;-71
2022/01/12 10:54:51;;;;;;;58.13;24.03;;;;;;;2.81;91.71;103532.31;5113431;28;20220;-71
2022/01/12 10:57:33;;;;;;;55.77;23.23;;;;;;;2.81;91.56;103527.16;5113641;28;20205;-72
2022/01/12 11:00:22;;;;;;;65.13;23.10;;;;;;;2.86;91.65;103525.63;5113958;28;20181;-71
2022/01/12 11:02:54;;;;;;;64.50;22.93;;;;;;;2.87;91.66;103529.09;5113642;28;20174;-71
2022/01/12 11:05:23;;;;;;;58.73;25.20;;;;;;;3.00;91.75;103533.84;5113613;28;20280;-71
2022/01/12 11:07:51;;;;;;;62.77;24.00;;;;;;;2.85;92.22;103531.59;5113273;28;20207;-71
2022/01/12 11:10:19;;;;;;;72.77;24.77;;;;;;;2.85;92.46;103526.41;5113216;28;20185;-71
2022/01/12 11:12:48;;;;;;;57.10;24.50;;;;;;;2.92;92.49;103523.22;5113558;28;20637;-71
2022/01/12 11:15:17;;;;;;;75.50;26.37;;;;;;;2.98;92.77;103528.63;5113238;28;20185;-71
2022/01/12 11:17:45;;;;;;;58.77;24.40;;;;;;;3.03;92.73;103527.09;5113744;28;20675;-72
2022/01/12 11:20:28;;;;;;;58.83;24.73;;;;;;;3.01;92.96;103523.56;5113296;28;20187;-71
2022/01/12 11:23:13;;;;;;;61.80;25.10;;;;;;;2.85;93.73;103533.31;5113461;28;20671;-71
2022/01/12 11:25:45;;;;;;;60.57;24.03;;;;;;;2.80;94.49;103524.50;5113619;28;20178;-72
2022/01/12 11:28:22;;;;;;;62.27;24.67;;;;;;;2.94;94.30;103539.72;5113117;28;20186;-71
2022/01/12 11:30:50;;;;;;;67.10;26.20;;;;;;;2.88;94.34;103536.88;5114019;28;20179;-71
2022/01/12 11:33:20;;;;;;;53.20;25.37;;;;;;;3.00;94.42;103533.84;5116991;28;20203;-71
2022/01/12 11:35:49;;;;;;;68.17;26.63;;;;;;;2.99;94.51;103535.56;5116613;28;20184;-72
2022/01/12 11:38:35;;;;;;;63.70;24.47;;;;;;;2.97;95.01;103531.16;5116666;28;20189;-71
2022/01/12 11:41:13;;;;;;;62.10;22.60;;;;;;;3.04;94.55;103527.97;5116916;28;20180;-71
2022/01/12 11:43:50;;;;;;;54.63;23.57;;;;;;;3.01;94.88;103531.34;5116513;28;20254;-71
2022/01/12 11:46:28;;;;;;;50.70;21.47;;;;;;;3.09;94.75;103523.84;5117159;28;20666;-72
2022/01/12 11:48:59;;;;;;;64.70;23.10;;;;;;;3.13;94.56;103524.81;5116950;28;20257;-71
2022/01/12 11:51:52;;;;;;;55.80;23.33;;;;;;;3.21;94.48;103521.66;5116422;28;20522;-71
2022/01/12 11:54:22;;;;;;;61.50;23.00;;;;;;;3.12;94.68;103523.03;5111994;28;20197;-71
2022/01/12 11:56:59;;;;;;;58.83;23.87;;;;;;;3.16;94.87;103532.69;5116519;28;20210;-71
2022/01/12 11:59:27;;;;;;;71.57;24.53;;;;;;;3.25;94.71;103533.88;5098724;28;20642;-71
2022/01/12 12:02:07;;;;;;;42.77;21.53;;;;;;;3.27;94.66;103528.75;5116594;28;20185;-71
2022/01/12 12:04:34;;;;;;;54.47;22.93;;;;;;;3.24;94.62;103523.47;5116677;28;20190;-71
2022/01/12 12:07:02;;;;;;;44.93;20.50;;;;;;;3.16;94.56;103511.97;5116358;28;20230;-71
2022/01/12 12:09:59;;;;;;;48.20;20.47;;;;;;;3.13;94.78;103509.28;5116300;28;20710;-71
2022/01/12 12:12:30;;;;;;;66.07;22.50;;;;;;;3.19;94.86;103512.94;5114734;28;20621;-71
2022/01/12 12:14:59;;;;;;;48.00;20.30;;;;;;;3.14;94.86;103516.22;5116292;28;20278;-71
2022/01/12 12:17:29;;;;;;;42.93;21.00;;;;;;;3.18;95.02;103533.63;5116122;28;20694;-71
2022/01/12 12:19:56;;;;;;;54.03;21.27;;;;;;;3.20;94.73;103519.88;5116015;28;20193;-71
2022/01/12 12:22:27;;;;;;;47.77;19.87;;;;;;;3.32;94.58;103527.19;5116390;28;20294;-71
2022/01/12 12:24:59;;;;;;;50.87;21.30;;;;;;;3.28;94.48;103530.50;5116517;28;20190;-71
2022/01/12 12:27:28;;;;;;;56.07;21.53;;;;;;;3.27;94.51;103533.94;5115734;28;20206;-72
2022/01/12 12:29:55;;;;;;;46.37;22.03;;;;;;;3.29;94.44;103532.28;5115895;28;20584;-71
2022/01/12 12:32:42;;;;;;;56.90;21.83;;;;;;;3.34;94.41;103538.47;5115757;28;20214;-71
2022/01/12 12:35:15;;;;;;;53.30;20.77;;;;;;;3.17;94.61;103539.63;5115630;28;20204;-71
2022/01/12 12:37:47;;;;;;;58.80;20.03;;;;;;;3.34;94.43;103540.19;5115728;28;20241;-72
2022/01/12 12:40:26;;;;;;;48.67;19.97;;;;;;;3.31;94.21;103538.41;5116106;28;20178;-71
2022/01/12 12:43:04;;;;;;;55.90;21.73;;;;;;;3.32;94.31;103527.19;5115733;28;20177;-71